Time;durP1;ratioP1;P1;durP2;ratioP2;P2;SDS_P1;SDS_P2;PMS_P1;PMS_P2;Temp;Humidity;BMP_temperature;BMP_pressure;BME280_temperature;BME280_humidity;BME280_pressure;Samples;Min_cycle;Max_cycle;Signal;HPM_P1;HPM_P2
2023/04/24 00:02:25;;;;;;;6.05;0.93;;;10.00;99.90;;;9.36;100.00;96599.78;5022489;28;20054;-79
2023/04/24 00:05:02;;;;;;;5.25;0.70;;;10.10;99.90;;;9.37;100.00;96596.28;5004129;28;20049;-79
2023/04/24 00:07:30;;;;;;;4.28;1.13;;;10.10;99.90;;;9.47;100.00;96577.66;5034900;28;20052;-79
2023/04/24 00:10:19;;;;;;;3.72;0.80;;;10.10;99.90;;;9.49;100.00;96584.41;4991306;28;20103;-78
2023/04/24 00:12:46;;;;;;;3.97;0.90;;;10.10;99.90;;;9.50;100.00;96587.84;5017190;28;20049;-78
2023/04/24 00:15:13;;;;;;;6.63;1.27;;;10.10;99.90;;;9.50;100.00;96567.94;5021193;28;20058;-79
2023/04/24 00:17:47;;;;;;;3.00;0.77;;;10.20;99.90;;;9.48;100.00;96589.69;5013105;28;20061;-78
2023/04/24 00:20:19;;;;;;;3.17;0.60;;;10.20;99.90;;;9.65;100.00;96568.88;5018476;28;20042;-79
2023/04/24 00:22:46;;;;;;;5.53;0.93;;;10.20;99.90;;;9.48;100.00;96562.00;5011707;28;20053;-78
2023/04/24 00:25:13;;;;;;;4.80;0.88;;;10.20;99.90;;;9.60;100.00;96569.13;5023904;28;20077;-79
2023/04/24 00:27:44;;;;;;;3.55;0.80;;;10.20;99.90;;;9.53;100.00;96559.16;5018157;28;20050;-79
2023/04/24 00:30:17;;;;;;;6.20;0.98;;;10.30;99.90;;;9.56;100.00;96562.44;5026276;28;20049;-79
2023/04/24 00:33:28;;;;;;;2.88;0.90;;;10.20;99.90;;;9.54;100.00;96540.13;5019213;28;20475;-78
2023/04/24 00:36:07;;;;;;;5.20;0.98;;;10.20;99.90;;;9.52;100.00;96544.56;5021955;28;20050;-79
2023/04/24 00:38:34;;;;;;;5.82;1.00;;;10.20;99.90;;;9.53;100.00;96541.03;5014363;28;20050;-79
2023/04/24 00:41:21;;;;;;;4.80;0.80;;;10.20;99.90;;;9.56;100.00;96533.13;5024621;28;20473;-78
2023/04/24 00:43:57;;;;;;;3.55;0.70;;;10.30;99.90;;;9.56;100.00;96548.66;5019968;28;20054;-79
2023/04/24 00:47:18;;;;;;;4.03;0.80;;;10.20;99.90;;;9.72;100.00;96546.88;5038452;28;20052;-79
2023/04/24 00:49:55;;;;;;;3.65;0.80;;;10.20;99.90;;;9.55;100.00;96540.03;5018924;28;20562;-78
2023/04/24 00:52:32;;;;;;;4.28;0.80;;;10.30;99.90;;;9.51;100.00;96541.13;5017995;28;20048;-78
2023/04/24 00:55:05;;;;;;;3.70;0.60;;;10.30;99.90;;;9.58;100.00;96544.22;4977777;28;20077;-78
2023/04/24 01:01:45;;;;;;;3.60;0.73;;;10.30;99.90;;;9.51;100.00;96551.50;4980097;28;20102;-79
2023/04/24 01:04:23;;;;;;;3.55;0.73;;;10.20;99.90;;;9.52;100.00;96553.16;4952771;28;20093;-77
2023/04/24 01:07:11;;;;;;;8.15;1.20;;;10.30;99.90;;;9.46;100.00;96548.31;4933841;28;20106;-78
2023/04/24 01:09:48;;;;;;;3.63;0.90;;;10.30;99.90;;;9.47;100.00;96555.16;4965792;28;20054;-79
2023/04/24 01:12:16;;;;;;;6.00;1.00;;;10.20;99.90;;;9.43;100.00;96551.91;4947912;28;20055;-79
2023/04/24 01:15:42;;;;;;;4.05;1.00;;;10.20;99.90;;;9.36;100.00;96583.41;4969540;28;20864;-78
2023/04/24 01:18:09;;;;;;;4.35;0.90;;;10.10;99.90;;;9.30;100.00;96594.09;4764087;28;5508292;-78
2023/04/24 01:20:44;;;;;;;3.97;0.77;;;10.00;99.90;;;9.13;100.00;96603.56;5016026;28;20045;-78
2023/04/24 01:23:32;;;;;;;4.18;0.60;;;9.80;99.90;;;8.79;100.00;96620.00;5013322;28;20491;-77
2023/04/24 01:26:06;;;;;;;4.43;0.68;;;9.60;99.90;;;8.47;100.00;96710.38;5016556;28;20149;-78
2023/04/24 01:28:39;;;;;;;1.30;0.50;;;9.30;99.90;;;8.43;100.00;96679.56;4998628;28;20057;-78
2023/04/24 01:31:06;;;;;;;2.60;0.60;;;9.10;99.90;;;8.33;100.00;96664.47;5002255;28;20046;-78
2023/04/24 01:33:34;;;;;;;2.22;0.60;;;8.90;99.90;;;8.21;100.00;96653.88;5002703;28;20096;-78
2023/04/24 01:36:38;;;;;;;2.55;0.80;;;8.80;99.90;;;8.11;100.00;96658.66;4984211;28;20155;-79
2023/04/24 01:39:37;;;;;;;1.05;0.70;;;8.70;99.90;;;8.00;100.00;96689.34;4973087;28;20090;-79
2023/04/24 01:42:08;;;;;;;1.98;0.82;;;8.60;99.90;;;7.87;100.00;96674.41;4971212;28;20062;-79
2023/04/24 01:44:42;;;;;;;1.73;0.80;;;8.60;99.90;;;7.82;100.00;96673.75;4986479;28;20119;-78
2023/04/24 01:47:09;;;;;;;5.47;2.00;;;8.50;99.90;;;7.74;100.00;96678.47;4955706;28;20055;-80
2023/04/24 01:49:45;;;;;;;4.22;1.70;;;8.50;99.90;;;7.74;100.00;96673.28;4957823;28;20057;-79
2023/04/24 01:52:33;;;;;;;2.70;1.65;;;8.40;99.90;;;7.76;100.00;96663.72;4965840;28;20060;-79
2023/04/24 01:55:24;;;;;;;3.20;2.17;;;8.40;99.90;;;7.71;100.00;96660.53;4959033;28;20050;-79
2023/04/24 01:58:08;;;;;;;5.47;2.22;;;8.40;99.90;;;7.73;100.00;96654.38;4985972;28;20073;-78
2023/04/24 02:00:39;;;;;;;4.07;1.92;;;8.40;99.90;;;7.65;100.00;96659.03;4970012;28;20650;-78
2023/04/24 02:03:06;;;;;;;3.65;1.80;;;8.40;99.90;;;7.71;100.00;96661.34;4973515;28;20115;-79
2023/04/24 02:06:14;;;;;;;4.82;2.30;;;8.40;99.90;;;7.63;100.00;96660.84;4969416;28;20077;-78
2023/04/24 02:08:42;;;;;;;4.95;2.22;;;8.40;99.90;;;7.63;100.00;96649.69;4982275;28;20046;-78
2023/04/24 02:11:15;;;;;;;3.72;2.33;;;8.40;99.90;;;7.59;100.00;96661.06;5004081;28;20042;-78
2023/04/24 02:14:28;;;;;;;6.53;2.40;;;8.40;99.90;;;7.65;100.00;96659.03;4992124;28;20144;-77
2023/04/24 02:16:56;;;;;;;3.58;2.70;;;8.40;99.90;;;7.58;100.00;96664.56;5011642;28;20631;-78
2023/04/24 02:19:26;;;;;;;3.63;2.33;;;8.30;99.90;;;7.55;100.00;96670.72;4992061;28;20045;-78
2023/04/24 02:22:02;;;;;;;5.22;2.70;;;8.30;99.90;;;7.60;100.00;96662.75;5010489;28;20041;-78
2023/04/24 02:28:33;;;;;;;4.95;3.00;;;8.30;99.90;;;7.44;100.00;96662.63;5012654;28;20296;-78
2023/04/24 02:31:05;;;;;;;5.28;3.47;;;8.30;99.90;;;7.48;100.00;96670.16;5014119;28;20041;-78
2023/04/24 02:34:23;;;;;;;4.10;2.60;;;8.30;99.90;;;7.48;100.00;96677.03;5011260;28;20128;-78
2023/04/24 02:37:12;;;;;;;6.47;3.05;;;8.30;99.90;;;7.42;100.00;96675.56;4956868;28;20068;-78
2023/04/24 02:40:32;;;;;;;5.00;3.42;;;8.30;99.90;;;7.39;100.00;96682.59;4979120;28;20073;-78
2023/04/24 02:42:59;;;;;;;6.80;3.63;;;8.30;99.90;;;7.38;100.00;96670.63;4980902;28;20069;-76
2023/04/24 02:45:26;;;;;;;4.45;3.00;;;8.20;99.90;;;7.36;100.00;96690.50;4983186;28;20046;-78
2023/04/24 02:48:00;;;;;;;6.88;3.65;;;8.10;99.90;;;7.34;100.00;96680.22;5015259;28;20073;-78
2023/04/24 02:50:58;;;;;;;5.90;3.08;;;8.20;99.90;;;7.32;100.00;96694.94;5014066;28;20053;-78
2023/04/24 02:53:33;;;;;;;5.45;3.70;;;8.10;99.90;;;7.26;100.00;96693.47;4977110;28;20046;-78
2023/04/24 02:57:09;;;;;;;5.30;3.63;;;8.10;99.90;;;7.23;100.00;96698.78;4941418;28;20052;-79
2023/04/24 03:00:23;;;;;;;4.55;3.30;;;8.10;99.90;;;7.16;100.00;96704.25;4943864;28;20059;-78
2023/04/24 03:02:55;;;;;;;4.78;3.28;;;8.10;99.90;;;7.12;100.00;96714.72;4944353;28;20058;-78
2023/04/24 03:06:11;;;;;;;6.00;4.00;;;8.00;99.90;;;7.13;100.00;96711.22;4951231;28;20059;-78
2023/04/24 03:08:46;;;;;;;5.43;3.60;;;8.00;99.90;;;7.16;100.00;96702.53;4909443;29;20079;-78
2023/04/24 03:11:13;;;;;;;9.82;3.70;;;8.00;99.90;;;7.15;100.00;96713.75;5006187;28;20121;-78
2023/04/24 03:13:43;;;;;;;6.00;3.30;;;8.00;99.90;;;7.17;100.00;96714.53;5015403;28;20084;-79
2023/04/24 03:16:19;;;;;;;5.05;3.65;;;7.90;99.90;;;7.17;100.00;96704.22;5012887;28;20053;-78
2023/04/24 03:19:06;;;;;;;7.65;4.07;;;7.90;99.90;;;7.07;100.00;96705.50;5013684;28;20042;-78
2023/04/24 03:26:02;;;;;;;7.43;4.80;;;7.80;99.90;;;7.00;100.00;96706.66;4977608;28;20636;-79
2023/04/24 03:28:32;;;;;;;7.95;4.63;;;7.80;99.90;;;6.83;100.00;96697.88;4978859;28;20121;-79
2023/04/24 03:31:11;;;;;;;8.43;4.93;;;7.70;99.90;;;6.87;100.00;96712.34;5000402;28;20057;-79
2023/04/24 03:33:51;;;;;;;7.90;5.45;;;7.70;99.90;;;6.72;100.00;96701.81;5014107;28;20042;-79
2023/04/24 03:36:27;;;;;;;7.30;4.80;;;7.60;99.90;;;6.68;100.00;96693.34;4994709;28;20060;-78
2023/04/24 03:39:03;;;;;;;9.77;5.50;;;7.60;99.90;;;6.62;100.00;96704.78;5015403;28;20041;-79
2023/04/24 03:42:28;;;;;;;7.95;4.90;;;7.60;99.90;;;6.71;100.00;96706.16;5014526;28;20093;-79
2023/04/24 03:45:19;;;;;;;;;;;7.50;99.90;;;6.62;100.00;96709.94;4976619;28;20058;-78
2023/04/24 03:48:02;;;;;;;6.93;4.90;;;7.50;99.90;;;6.62;100.00;96707.34;5015026;28;19927;-77
2023/04/24 03:50:38;;;;;;;7.60;5.75;;;7.50;99.90;;;6.68;100.00;96704.53;5018764;28;20050;-79
2023/04/24 03:53:33;;;;;;;9.25;4.85;;;7.50;99.90;;;6.68;100.00;96711.41;5014729;28;20049;-79
2023/04/24 03:56:04;;;;;;;7.70;5.13;;;7.50;99.90;;;6.69;100.00;96718.25;5027542;28;20057;-79
2023/04/24 03:58:50;;;;;;;15.02;5.50;;;7.50;99.90;;;6.72;100.00;96710.38;5015936;28;20074;-80
2023/04/24 04:01:45;;;;;;;10.23;5.97;;;7.50;99.90;;;6.70;100.00;96701.88;5012866;28;20070;-78
2023/04/24 04:04:41;;;;;;;7.55;5.55;;;7.60;99.90;;;6.76;100.00;96701.63;5013678;28;20049;-79
2023/04/24 04:07:31;;;;;;;7.25;5.72;;;7.60;99.90;;;6.74;100.00;96700.03;5010985;28;20571;-79
2023/04/24 04:10:01;;;;;;;9.27;5.72;;;7.60;99.90;;;6.74;100.00;96716.31;5017491;28;20065;-79
2023/04/24 04:13:07;;;;;;;8.60;5.47;;;7.60;99.90;;;6.78;100.00;96717.88;5020186;28;20049;-79
2023/04/24 04:15:34;;;;;;;7.28;5.93;;;7.60;99.90;;;6.72;100.00;96719.88;4957067;28;20082;-79
2023/04/24 04:18:01;;;;;;;8.13;6.45;;;7.60;99.90;;;6.77;100.00;96717.94;4977796;28;20050;-78
2023/04/24 04:21:04;;;;;;;10.80;6.72;;;7.60;99.90;;;6.74;100.00;96720.66;4991720;28;20066;-78
2023/04/24 04:23:36;;;;;;;10.70;6.97;;;7.60;99.90;;;6.63;100.00;96727.06;4962676;28;20069;-78
2023/04/24 04:26:07;;;;;;;12.82;8.05;;;7.50;99.90;;;6.61;100.00;96715.97;4974112;28;20073;-79
2023/04/24 04:28:38;;;;;;;12.10;8.75;;;7.50;99.90;;;6.58;100.00;96721.25;4967625;28;20074;-78
2023/04/24 04:31:15;;;;;;;11.05;6.72;;;7.50;99.90;;;6.60;100.00;96729.78;4962021;28;20060;-78
2023/04/24 04:34:07;;;;;;;13.60;9.32;;;7.50;99.90;;;6.63;100.00;96734.81;4979170;28;20050;-79
2023/04/24 04:36:39;;;;;;;9.77;7.20;;;7.50;99.90;;;6.70;100.00;96731.09;4959955;28;20047;-79
2023/04/24 04:39:10;;;;;;;9.90;7.88;;;7.60;99.90;;;6.59;100.00;96741.00;4994961;28;20425;-78
2023/04/24 04:41:40;;;;;;;11.15;7.03;;;7.60;99.90;;;6.66;100.00;96745.00;5016288;28;20058;-79
2023/04/24 04:44:19;;;;;;;9.65;7.60;;;7.60;99.90;;;6.72;100.00;96749.06;5016006;28;20060;-79
2023/04/24 04:47:05;;;;;;;;;;;7.60;99.90;;;6.82;100.00;96744.38;4992137;28;20105;-78
2023/04/24 04:49:41;;;;;;;11.40;8.02;;;7.60;99.90;;;6.67;100.00;96756.16;5008067;28;19961;-78
2023/04/24 04:52:09;;;;;;;9.23;7.63;;;7.60;99.90;;;6.76;100.00;96744.66;5014820;28;20042;-79
2023/04/24 04:54:36;;;;;;;9.95;7.60;;;7.60;99.90;;;6.78;100.00;96751.41;5012498;28;20050;-79
2023/04/24 04:57:26;;;;;;;10.73;7.68;;;7.70;99.90;;;6.80;100.00;96753.94;4994228;28;20058;-78
2023/04/24 05:00:04;;;;;;;10.55;7.57;;;7.70;99.90;;;6.83;100.00;96739.16;5022833;28;20056;-78
2023/04/24 05:02:48;;;;;;;9.65;7.20;;;7.70;99.90;;;6.83;100.00;96749.47;5009750;28;20082;-79
2023/04/24 05:05:24;;;;;;;11.18;7.13;;;7.70;99.90;;;6.82;100.00;96746.94;5011810;28;20132;-79
2023/04/24 05:07:55;;;;;;;12.07;8.60;;;7.70;99.90;;;6.77;100.00;96751.47;5017899;28;20129;-79
2023/04/24 05:10:57;;;;;;;12.43;7.63;;;7.70;99.90;;;6.75;100.00;96754.13;5020774;28;20080;-78
2023/04/24 05:13:30;;;;;;;11.02;8.50;;;7.60;99.90;;;6.67;100.00;96759.56;5013355;28;20041;-77
2023/04/24 05:16:45;;;;;;;10.32;8.18;;;7.60;99.90;;;6.74;100.00;96765.31;4998862;28;20069;-78
2023/04/24 05:19:13;;;;;;;12.93;8.88;;;7.70;99.90;;;6.69;100.00;96762.94;4961625;28;20051;-78
2023/04/24 05:22:32;;;;;;;11.50;8.25;;;7.60;99.90;;;6.81;100.00;96777.06;4948422;28;20134;-78
2023/04/24 05:24:59;;;;;;;9.77;6.90;;;7.70;99.90;;;6.86;100.00;96777.72;4960470;28;20063;-78
2023/04/24 05:27:45;;;;;;;11.85;8.38;;;7.60;99.90;;;6.76;100.00;96773.84;4965403;28;20054;-77
2023/04/24 05:30:31;;;;;;;11.80;8.00;;;7.60;99.90;;;6.70;100.00;96779.25;4949389;28;20075;-78
2023/04/24 05:34:17;;;;;;;9.70;8.02;;;7.60;99.90;;;6.78;100.00;96791.84;4945073;28;20055;-78
2023/04/24 05:37:30;;;;;;;11.18;7.90;;;7.60;99.90;;;6.85;100.00;96796.69;4967411;28;20044;-79
2023/04/24 05:40:16;;;;;;;9.95;8.10;;;7.70;99.90;;;6.89;100.00;96802.56;5019419;28;20050;-78
2023/04/24 05:43:37;;;;;;;10.70;8.30;;;7.60;99.90;;;6.88;100.00;96809.44;4960533;28;20051;-79
2023/04/24 05:46:24;;;;;;;8.85;6.70;;;7.70;99.90;;;7.09;100.00;96809.47;4946184;29;20146;-78
2023/04/24 05:48:57;;;;;;;10.93;7.20;;;7.70;99.90;;;7.15;100.00;96816.97;4963468;28;20541;-77
2023/04/24 05:52:09;;;;;;;10.77;5.88;;;7.70;99.90;;;7.17;100.00;96793.69;4932857;28;20051;-78
2023/04/24 05:54:46;;;;;;;11.13;6.22;;;7.80;99.90;;;7.06;100.00;96812.19;4934587;29;20079;-79
2023/04/24 05:57:28;;;;;;;7.88;5.10;;;7.80;99.90;;;7.16;100.00;96817.81;4967757;28;20051;-79
2023/04/24 06:00:01;;;;;;;10.38;5.82;;;7.70;99.90;;;7.06;100.00;96799.31;4953182;28;20057;-79
2023/04/24 06:03:34;;;;;;;9.13;4.90;;;7.80;99.90;;;7.39;100.00;96798.78;4942056;28;20087;-79
2023/04/24 06:06:32;;;;;;;9.00;5.22;;;7.80;99.90;;;7.45;100.00;96795.94;4949945;28;20058;-79
2023/04/24 06:10:27;;;;;;;7.78;4.53;;;7.90;99.90;;;7.42;100.00;96801.25;4953561;28;20050;-80
2023/04/24 06:13:00;;;;;;;9.27;4.90;;;7.90;99.90;;;7.50;100.00;96776.78;4962478;28;20058;-78
2023/04/24 06:16:07;;;;;;;6.45;4.20;;;8.10;99.90;;;7.62;100.00;96784.88;4970010;28;20299;-79
2023/04/24 06:18:34;;;;;;;5.30;4.22;;;8.20;99.90;;;7.78;100.00;96785.91;4920941;28;20054;-77
2023/04/24 06:21:06;;;;;;;7.30;4.50;;;8.20;99.90;;;7.65;100.00;96795.09;4951867;28;20055;-79
2023/04/24 06:24:04;;;;;;;7.93;3.97;;;8.20;99.90;;;7.83;100.00;96773.63;4964799;28;20111;-79
2023/04/24 06:26:34;;;;;;;;;;;8.30;99.90;;;7.88;100.00;96786.34;5002441;28;20145;-80
2023/04/24 06:29:24;;;;;;;7.90;4.60;;;8.30;99.90;;;7.88;100.00;96770.84;5016082;28;19921;-79
2023/04/24 06:32:03;;;;;;;6.43;3.88;;;8.40;99.90;;;8.22;100.00;96779.66;4987420;28;20543;-78
2023/04/24 06:34:32;;;;;;;6.60;3.58;;;8.40;99.90;;;8.08;100.00;96785.47;5020577;28;20151;-79
2023/04/24 06:38:12;;;;;;;9.38;3.83;;;8.40;99.90;;;8.03;100.00;96783.06;5018230;28;20045;-79
2023/04/24 06:40:53;;;;;;;7.43;4.38;;;8.40;99.90;;;7.89;100.00;96778.53;4954935;28;20072;-79
2023/04/24 06:43:37;;;;;;;6.40;4.20;;;8.40;99.90;;;7.90;100.00;96789.69;4973377;28;20551;-79
2023/04/24 06:46:32;;;;;;;7.78;4.50;;;8.30;99.90;;;7.83;100.00;96796.88;5019842;28;20077;-79
2023/04/24 06:49:31;;;;;;;7.25;3.72;;;8.30;99.90;;;7.68;100.00;96792.38;5019950;28;20046;-78
2023/04/24 06:52:05;;;;;;;7.30;3.78;;;8.10;99.90;;;7.56;100.00;96778.25;5013754;28;20066;-79
2023/04/24 06:54:33;;;;;;;6.63;3.17;;;8.10;99.90;;;7.46;100.00;96790.72;5005223;28;20297;-79
2023/04/24 06:57:16;;;;;;;5.83;3.20;;;8.20;99.90;;;7.57;100.00;96779.91;4978074;28;20086;-78
2023/04/24 07:00:01;;;;;;;5.90;2.63;;;8.30;99.90;;;7.80;100.00;96785.84;4976256;28;21036;-78
2023/04/24 07:02:57;;;;;;;5.05;2.63;;;8.20;99.90;;;8.28;100.00;96759.53;4952497;28;20054;-80
2023/04/24 07:05:33;;;;;;;5.10;2.25;;;8.70;99.90;;;8.29;100.00;96768.13;4979505;28;20086;-79
2023/04/24 07:08:13;;;;;;;5.15;2.10;;;8.80;99.90;;;8.26;100.00;96763.94;4943018;28;20058;-79
2023/04/24 07:11:19;;;;;;;5.82;2.17;;;8.80;99.90;;;7.95;100.00;96767.91;4879792;29;20068;-79
2023/04/24 07:13:47;;;;;;;5.55;2.33;;;8.60;99.90;;;8.04;100.00;96774.41;4890151;28;20045;-79
2023/04/24 07:16:33;;;;;;;5.10;2.50;;;8.50;99.90;;;7.90;100.00;96795.69;4959653;28;20043;-79
2023/04/24 07:22:53;;;;;;;4.40;2.78;;;8.30;99.90;;;7.73;100.00;96769.75;4914933;29;20091;-80
2023/04/24 07:25:54;;;;;;;4.03;2.20;;;8.40;99.90;;;7.73;100.00;96769.75;4912986;29;20048;-77
2023/04/24 07:28:33;;;;;;;4.30;2.38;;;8.40;99.90;;;7.62;100.00;96777.13;4898658;29;20052;-79
2023/04/24 07:31:01;;;;;;;6.45;3.00;;;8.50;99.90;;;7.59;100.00;96775.53;4913245;29;20542;-79
2023/04/24 07:33:52;;;;;;;5.25;2.92;;;8.30;99.90;;;7.52;100.00;96798.19;4956671;28;20055;-78
2023/04/24 07:36:20;;;;;;;7.90;3.03;;;8.40;99.90;;;7.77;100.00;96780.81;5016392;28;20053;-79
2023/04/24 07:38:50;;;;;;;7.85;2.75;;;8.40;99.90;;;7.96;100.00;96784.25;5016935;28;20427;-78
2023/04/24 07:41:20;;;;;;;3.53;2.50;;;8.40;99.90;;;8.10;100.00;96783.63;5020037;28;20056;-79
2023/04/24 07:44:29;;;;;;;4.25;2.28;;;8.50;99.90;;;8.37;100.00;96774.63;5013413;28;20050;-78
2023/04/24 07:46:59;;;;;;;5.75;2.50;;;8.60;99.90;;;8.55;100.00;96783.28;5018317;28;20049;-78
2023/04/24 07:49:45;;;;;;;4.72;2.58;;;8.80;99.90;;;8.37;100.00;96766.03;5011649;28;20637;-79
2023/04/24 07:52:19;;;;;;;6.32;2.78;;;8.90;99.90;;;8.11;100.00;96790.47;5006590;28;20805;-79
2023/04/24 07:54:46;;;;;;;8.45;2.92;;;8.90;99.90;;;7.93;100.00;96797.31;5012147;28;20521;-79
2023/04/24 07:57:40;;;;;;;4.43;2.33;;;8.70;99.90;;;7.93;100.00;96817.97;5004938;28;20077;-79
2023/04/24 08:03:24;;;;;;;5.35;2.80;;;8.40;99.90;;;7.92;100.00;96832.66;5017404;28;20045;-78
2023/04/24 08:06:07;;;;;;;8.57;3.42;;;8.50;99.90;;;7.86;100.00;96806.25;5017074;28;20774;-79
2023/04/24 08:08:35;;;;;;;4.60;2.55;;;8.40;99.90;;;7.85;100.00;96830.41;5016027;28;20115;-78
2023/04/24 08:11:13;;;;;;;6.35;3.13;;;8.30;99.90;;;7.67;100.00;96838.03;5019844;28;20041;-79
2023/04/24 08:14:16;;;;;;;6.00;2.72;;;8.40;99.90;;;7.77;100.00;96835.06;5021618;28;20050;-78
2023/04/24 08:17:18;;;;;;;4.72;3.05;;;8.40;99.90;;;7.58;100.00;96848.75;5000485;28;20114;-79
2023/04/24 08:20:05;;;;;;;7.22;3.20;;;8.40;99.90;;;7.54;100.00;96855.78;4963604;28;20098;-79
2023/04/24 08:26:57;;;;;;;6.13;3.22;;;8.20;99.90;;;7.53;100.00;96863.63;4945252;29;20048;-79
2023/04/24 08:29:58;;;;;;;6.05;3.95;;;8.30;99.90;;;7.75;100.00;96861.81;4943621;28;20122;-78
2023/04/24 08:35:33;;;;;;;7.10;3.65;;;8.30;99.90;;;7.70;100.00;96862.91;4930182;29;20066;-79
2023/04/24 08:38:32;;;;;;;8.50;3.65;;;8.40;99.90;;;7.63;100.00;96862.31;4984423;28;20050;-79
2023/04/24 08:41:04;;;;;;;6.38;3.58;;;8.40;99.90;;;7.53;100.00;96898.03;4955246;28;20070;-78
2023/04/24 08:44:16;;;;;;;5.93;3.10;;;8.50;99.90;;;7.45;100.00;96894.06;4975094;28;20060;-80
2023/04/24 08:46:53;;;;;;;6.75;3.95;;;8.30;99.90;;;7.65;100.00;96878.59;4970197;28;20117;-80
2023/04/24 08:49:31;;;;;;;9.38;4.68;;;8.30;99.90;;;7.36;100.00;96886.69;4960130;28;20038;-78
2023/04/24 08:52:09;;;;;;;6.82;4.30;;;8.20;99.90;;;7.50;100.00;96910.22;4970278;28;20513;-78
2023/04/24 08:54:45;;;;;;;9.45;5.35;;;8.20;99.90;;;7.48;100.00;96902.53;4978352;28;20055;-79
2023/04/24 08:57:27;;;;;;;13.15;4.88;;;8.20;99.90;;;7.54;100.00;96898.84;4982470;28;20050;-79
2023/04/24 09:00:01;;;;;;;10.77;5.53;;;8.30;99.90;;;7.52;100.00;96911.00;4996815;28;20051;-79
2023/04/24 09:03:01;;;;;;;10.75;5.40;;;8.40;99.90;;;7.44;100.00;96913.91;4968707;28;20054;-78
2023/04/24 09:05:38;;;;;;;8.00;5.97;;;8.20;99.90;;;7.01;100.00;96946.56;4972601;28;20066;-78
2023/04/24 09:12:11;;;;;;;7.53;6.50;;;7.90;99.90;;;6.92;100.00;96972.72;4989249;28;20134;-77
2023/04/24 09:14:42;;;;;;;12.23;6.30;;;7.80;99.90;;;7.10;100.00;96992.66;4936278;28;20051;-77
2023/04/24 09:17:09;;;;;;;12.15;6.45;;;7.70;99.90;;;7.09;100.00;96997.88;5001110;28;20038;-77
2023/04/24 09:19:37;;;;;;;11.10;6.15;;;7.80;99.90;;;7.20;100.00;97000.06;5019511;28;20107;-78
2023/04/24 09:22:07;;;;;;;8.90;6.50;;;7.90;99.90;;;7.42;100.00;97000.06;5010774;28;20050;-77
2023/04/24 09:24:35;;;;;;;9.13;5.82;;;8.10;99.90;;;7.82;100.00;97006.22;4995467;28;20042;-77
2023/04/24 09:27:03;;;;;;;9.10;6.07;;;8.10;99.90;;;7.53;100.00;97000.50;5005290;28;20500;-77
2023/04/24 09:29:32;;;;;;;8.85;5.13;;;8.20;99.90;;;7.61;100.00;97006.16;4996984;28;20508;-77
2023/04/24 09:32:17;;;;;;;8.02;5.10;;;8.20;99.90;;;7.51;100.00;96991.97;5009644;28;20042;-77
2023/04/24 09:34:47;;;;;;;8.27;5.68;;;8.20;99.90;;;7.56;100.00;96996.94;5018674;28;20087;-77
2023/04/24 09:37:29;;;;;;;9.98;6.22;;;8.30;99.90;;;7.68;100.00;96986.94;5000921;28;20544;-77
2023/04/24 09:40:16;;;;;;;9.18;5.55;;;8.30;99.90;;;7.80;100.00;96993.38;5008308;28;20154;-78
2023/04/24 09:42:53;;;;;;;10.27;6.53;;;8.30;99.90;;;7.83;100.00;96971.75;5006027;28;20061;-77
2023/04/24 09:45:21;;;;;;;10.05;6.47;;;8.40;99.90;;;7.64;100.00;96975.06;5007833;28;20407;-77
2023/04/24 09:47:55;;;;;;;10.80;6.22;;;8.30;99.90;;;7.62;100.00;96981.19;5011340;28;20377;-77
2023/04/24 09:50:23;;;;;;;8.30;5.82;;;8.30;99.90;;;7.86;100.00;96979.34;5007040;28;20050;-76
2023/04/24 09:52:59;;;;;;;12.30;8.75;;;8.30;99.90;;;7.78;100.00;96996.91;4997100;28;20038;-77
2023/04/24 09:55:27;;;;;;;14.15;7.65;;;8.30;99.90;;;7.83;100.00;96982.91;5007732;28;20152;-77
2023/04/24 09:58:00;;;;;;;14.60;7.80;;;8.40;99.90;;;7.81;100.00;96984.72;5001773;28;20047;-77
2023/04/24 10:00:31;;;;;;;10.50;6.28;;;8.40;99.90;;;7.92;100.00;96982.53;5000787;28;20053;-77
2023/04/24 10:03:03;;;;;;;8.23;6.13;;;8.40;99.90;;;7.93;100.00;96976.44;5003914;28;20048;-77
2023/04/24 10:05:33;;;;;;;10.80;6.03;;;8.50;99.90;;;7.94;100.00;96985.06;5005389;28;20054;-76
2023/04/24 10:08:04;;;;;;;11.60;6.78;;;8.60;99.90;;;8.07;100.00;96998.28;5010873;28;20484;-77
2023/04/24 10:10:34;;;;;;;11.40;6.93;;;8.50;99.90;;;7.86;100.00;96987.09;5000540;28;20140;-77
2023/04/24 10:13:01;;;;;;;10.80;7.32;;;8.50;99.90;;;7.74;100.00;96994.44;5002600;28;20045;-77
2023/04/24 10:15:30;;;;;;;11.27;8.10;;;8.40;99.90;;;7.94;100.00;96993.66;5007509;28;20049;-77
2023/04/24 10:17:59;;;;;;;11.38;7.40;;;8.60;99.90;;;8.02;100.00;97002.81;5012506;28;20046;-77
2023/04/24 10:20:30;;;;;;;11.35;6.55;;;8.60;99.90;;;8.36;100.00;96990.13;4995677;28;20096;-77
2023/04/24 10:22:59;;;;;;;11.88;7.13;;;8.80;99.90;;;8.22;100.00;96995.06;5006917;28;20057;-77
2023/04/24 10:25:40;;;;;;;10.30;6.35;;;8.90;99.90;;;8.68;100.00;97002.63;5005849;28;20053;-77
2023/04/24 10:28:42;;;;;;;10.23;6.35;;;8.80;99.90;;;8.56;100.00;96988.47;5012017;28;20054;-77
2023/04/24 10:31:49;;;;;;;10.20;6.88;;;9.00;99.90;;;8.86;100.00;96975.06;5007586;28;20053;-77
2023/04/24 10:38:31;;;;;;;10.02;6.00;;;9.50;99.90;;;9.27;100.00;96983.53;5003735;28;20053;-77
2023/04/24 10:41:49;;;;;;;11.50;6.57;;;9.50;99.90;;;9.51;100.00;96978.94;5005031;28;20419;-78
2023/04/24 10:44:49;;;;;;;12.57;6.13;;;9.80;99.90;;;9.46;100.00;96972.28;4944826;28;20050;-77
2023/04/24 10:47:18;;;;;;;9.65;5.72;;;10.00;99.90;;;9.59;100.00;96976.81;4962748;28;20154;-77
2023/04/24 10:50:14;;;;;;;7.88;5.75;;;10.20;99.90;;;9.80;100.00;96987.03;4942733;28;20089;-77
2023/04/24 10:53:38;;;;;;;10.70;6.18;;;10.20;99.90;;;9.80;100.00;96976.66;4973038;28;20104;-77
2023/04/24 10:57:05;;;;;;;10.27;5.75;;;9.90;99.90;;;9.58;100.00;96979.50;4960807;28;20046;-78
2023/04/24 10:59:37;;;;;;;8.95;5.47;;;10.00;99.90;;;9.55;100.00;96992.56;4954072;28;20418;-77
2023/04/24 11:02:08;;;;;;;12.55;6.32;;;10.00;99.90;;;9.11;100.00;96980.81;4982460;28;20052;-77
2023/04/24 11:04:36;;;;;;;10.55;6.18;;;9.90;99.90;;;9.10;100.00;96991.22;4995201;28;20148;-77
2023/04/24 11:07:03;;;;;;;11.02;6.32;;;9.60;99.90;;;8.91;100.00;96991.22;4999714;28;20142;-78
2023/04/24 11:09:32;;;;;;;7.85;5.45;;;9.80;99.90;;;9.11;100.00;96993.75;5006103;28;20353;-77
2023/04/24 11:12:10;;;;;;;9.57;5.97;;;9.50;99.90;;;8.95;100.00;96996.19;5001467;28;20525;-78
2023/04/24 11:14:56;;;;;;;9.40;5.90;;;9.40;99.90;;;8.68;100.00;97002.63;5018252;28;20054;-77
2023/04/24 11:17:30;;;;;;;7.95;5.80;;;9.40;99.90;;;8.57;100.00;97019.44;5007246;28;20054;-77
2023/04/24 11:20:16;;;;;;;12.50;5.90;;;9.20;99.90;;;8.81;100.00;97008.09;5013842;28;20077;-77
2023/04/24 11:22:55;;;;;;;7.47;4.88;;;9.30;99.90;;;9.02;100.00;97014.03;5007252;28;20053;-77
2023/04/24 11:25:22;;;;;;;8.35;5.75;;;9.40;99.90;;;9.07;100.00;97014.66;5007853;28;20050;-77
2023/04/24 11:27:50;;;;;;;10.57;6.18;;;9.50;99.90;;;8.64;100.00;97014.81;5006865;28;20480;-77
2023/04/24 11:30:19;;;;;;;8.48;4.65;;;9.40;99.90;;;8.83;100.00;97037.34;5011951;28;20060;-77
2023/04/24 11:32:53;;;;;;;7.93;4.82;;;9.30;99.90;;;8.67;100.00;97016.47;5007238;28;20181;-77
2023/04/24 11:35:27;;;;;;;8.55;4.78;;;9.30;99.90;;;8.70;100.00;97021.50;5012504;28;20050;-77
2023/04/24 11:37:55;;;;;;;8.77;5.30;;;9.30;99.90;;;8.82;100.00;97026.13;5004955;28;20046;-77
2023/04/24 11:40:25;;;;;;;11.00;5.07;;;9.30;99.90;;;8.91;100.00;97032.63;5010199;28;20046;-78
2023/04/24 11:43:01;;;;;;;9.05;4.68;;;9.60;99.90;;;9.06;100.00;97020.78;5005988;28;20093;-76
2023/04/24 11:45:30;;;;;;;7.82;4.68;;;9.70;99.90;;;9.10;100.00;97022.28;4986819;28;20463;-77
2023/04/24 11:47:58;;;;;;;8.98;5.30;;;9.80;99.90;;;9.04;100.00;97027.75;5005727;28;20053;-77
2023/04/24 11:50:28;;;;;;;9.55;5.28;;;9.70;99.90;;;8.85;100.00;97015.66;5008038;28;20087;-77
2023/04/24 11:52:56;;;;;;;9.27;5.00;;;9.70;99.90;;;9.08;100.00;97019.78;5006374;28;20057;-75
2023/04/24 11:55:26;;;;;;;8.15;4.90;;;9.60;99.90;;;9.21;100.00;97022.63;5008656;28;20124;-74
2023/04/24 11:57:57;;;;;;;8.23;4.80;;;9.60;99.90;;;9.42;100.00;97020.81;4998746;28;20175;-74
2023/04/24 12:00:34;;;;;;;9.43;5.07;;;9.80;99.90;;;9.45;100.00;97025.84;5010639;28;20054;-74
2023/04/24 12:03:11;;;;;;;8.40;4.47;;;9.80;99.90;;;9.67;100.00;97020.50;4992027;28;20046;-76